Aviation Digital Data Service (ADDS)

Output produced by METARs form (2147 UTC 15 December 2017)
found at http://www.aviationweather.gov/adds/metars/
 
KJST 152054Z AUTO 25012G21KT 10SM FEW015 BKN021 OVC028 M06/M09 A2978 RMK AO2 SNE40 SLP121 P0000 60000 T10611094 55004
KJST 152013Z AUTO 25011G20KT 3SM -SN BKN016 OVC021 M06/M09 A2977 RMK AO2 P0000 T10611089
KJST 151959Z AUTO 26011KT 2SM -SN BR BKN015 OVC021 M06/M08 A2977 RMK AO2 P0000 T10611083
KJST 151954Z AUTO 25010KT 1 3/4SM -SN BR BKN013 OVC019 M06/M08 A2977 RMK AO2 SLP120 P0000 T10611083
KJST 151943Z AUTO 26011KT 1 1/2SM -SN BR BKN015 OVC020 M06/M08 A2978 RMK AO2 P0000 T10611083
KJST 151925Z AUTO 25010KT 2SM -SN BR OVC017 M06/M08 A2977 RMK AO2 P0000 T10611083
KJST 151912Z AUTO 25012KT 1 1/2SM -SN BR OVC017 M06/M08 A2977 RMK AO2 P0000 T10611083
KJST 151854Z AUTO 25011KT 2 1/2SM -SN BR OVC016 M07/M08 A2977 RMK AO2 SLP119 P0000 T10671083
KJST 151839Z AUTO 25007KT 1 3/4SM -SN BR OVC016 M07/M08 A2978 RMK AO2 P0000 T10671083
KJST 151830Z AUTO 24006KT 2SM -SN BR OVC016 M07/M08 A2978 RMK AO2 P0000 T10671078
KJST 151754Z AUTO 23006KT 1SM -SN BR FEW006 OVC026 M07/M08 A2979 RMK AO2 SNE02B14 SLP126 P0000 60000 T10671083 11067 21083 58019
KJST 151727Z AUTO 22007KT 1 1/4SM -SN BR SCT014 OVC025 M07/M08 A2980 RMK AO2 SNE02B14 P0000 T10671083
KJST 151703Z AUTO 23005KT 1 3/4SM BR OVC014 M07/M09 A2982 RMK AO2 SNE02 P0000 T10721089
KJST 151654Z AUTO 22004KT 2SM -SN BR OVC016 M07/M09 A2982 RMK AO2 SLP136 P0000 T10721094
KJST 151639Z AUTO 24005KT 2SM -SN BR OVC019 M08/M09 A2983 RMK AO2 P0000 T10781094
KJST 151554Z AUTO 24004KT 1 1/4SM -SN OVC017 M08/M11 A2985 RMK AO2 SNB30 SLP147 P0000 T10781106
KJST 151550Z AUTO 23004KT 1 1/4SM -SN OVC017 M08/M11 A2985 RMK AO2 SNB30 P0000
KJST 151543Z AUTO 23005KT 2SM -SN BR OVC015 M08/M11 A2985 RMK AO2 SNB30 P0000 T10831106
KJST 151454Z AUTO 21004KT 10SM OVC015 M08/M11 A2986 RMK AO2 SLP151 T10781106 56008
KJST 151354Z AUTO 19005KT 10SM OVC018 M08/M11 A2987 RMK AO2 SLP152 T10781111
KJST 151301Z AUTO 18004KT 10SM OVC019 M08/M12 A2988 RMK AO2 T10781117
KJST 151254Z AUTO 18005KT 10SM BKN014 OVC021 M08/M12 A2988 RMK AO2 SLP157 T10781117
KJST 151210Z AUTO 16006KT 10SM OVC014 M08/M12 A2989 RMK AO2 T10831117
KJST 151154Z AUTO 16007KT 10SM OVC015 M08/M12 A2989 RMK AO2 SLP161 70003 T10831122 11083 21106 58005
KJST 151054Z AUTO 14003KT 10SM OVC016 M08/M12 A2990 RMK AO2 SLP163 T10831122
KJST 150954Z AUTO 18004KT 10SM OVC019 M09/M12 A2990 RMK AO2 SLP164 T10891122
KJST 150916Z AUTO 18005KT 10SM BKN019 BKN120 M09/M13 A2991 RMK AO2 T10941128
KJST 150854Z AUTO 19003KT 10SM FEW120 M11/M13 A2990 RMK AO2 SLP166 T11061128 58008
KJST 150754Z AUTO 00000KT 10SM SCT021 M10/M13 A2992 RMK AO2 SLP171 T11001128
KJST 150654Z AUTO 00000KT 10SM BKN021 M09/M13 A2993 RMK AO2 SLP174 T10941128
KJST 150554Z AUTO 22003KT 10SM CLR M10/M13 A2994 RMK AO2 SLP176 T11001133 11089 21100 58004
KJST 150454Z AUTO 24003KT 10SM CLR M09/M13 A2995 RMK AO2 SLP181 T10941133 410171100
KJST 150354Z AUTO 24003KT 10SM CLR M09/M14 A2995 RMK AO2 SLP182 T10941139
KJST 150254Z AUTO 00000KT 10SM FEW028 M09/M14 A2995 RMK AO2 SLP181 T10941139 50005
KJST 150244Z AUTO 00000KT 10SM SCT028 M09/M14 A2995 RMK AO2 T10941139
KJST 150154Z AUTO 28003KT 10SM BKN028 M09/M14 A2995 RMK AO2 SLP183 T10941139
KJST 150054Z AUTO 28003KT 10SM OVC029 M09/M14 A2995 RMK AO2 SLP180 T10891139
KJST 150028Z AUTO 27003KT 10SM BKN029 M09/M14 A2994 RMK AO2 T10891139
KJST 142354Z AUTO 29005KT 10SM CLR M09/M14 A2993 RMK AO2 SLP172 T10941144 11061 21100 53021
KJST 142254Z AUTO 29007KT 10SM CLR M09/M14 A2991 RMK AO2 SLP162 T10891144
KJST 142154Z AUTO 31008KT 10SM FEW025 FEW031 M08/M14 A2989 RMK AO2 SLP153 T10831139
KJST 142054Z AUTO 30009KT 10SM CLR M07/M14 A2987 RMK AO2 SLP144 T10721139 53019
KJST 141954Z AUTO 29016KT 10SM CLR M07/M14 A2984 RMK AO2 SLP134 T10671139
KJST 141854Z AUTO 31017KT 10SM FEW027 SCT033 M07/M12 A2981 RMK AO2 SLP123 T10671122
KJST 141845Z AUTO 31015KT 10SM SCT027 M06/M12 A2980 RMK AO2 T10611117
KJST 141754Z AUTO 31009KT 10SM SCT012 OVC019 M07/M11 A2981 RMK AO2 SNE12 SLP126 P0000 60003 T10721111 11056 21072 53008
KJST 141742Z AUTO 31012KT 9SM OVC012 M07/M10 A2980 RMK AO2 SNE12 P0000 T10721100
KJST 141654Z AUTO 29008KT 250V310 6SM -SN OVC016 M07/M10 A2978 RMK AO2 SNB33 SLP116 P0000 T10671100
KJST 141620Z AUTO 28016KT 10SM OVC016 M07/M11 A2978 RMK AO2 T10721106
KJST 141601Z AUTO 31014G21KT 10SM OVC014 M07/M11 A2978 RMK AO2 T10721106
KJST 141554Z AUTO 30012G19KT 8SM OVC016 M07/M11 A2978 RMK AO2 SNE11 SLP119 P0002 T10721106
KJST 141547Z AUTO 30011G17KT 5SM HZ BKN015 OVC019 M07/M11 A2978 RMK AO2 SNE11 P0002 T10721106
KJST 141542Z AUTO 29007G17KT 1 1/4SM HZ OVC015 M07/M11 A2978 RMK AO2 SNE11 P0001 T10721106
KJST 141518Z AUTO 31013G21KT 8SM BKN015 OVC032 M07/M11 A2977 RMK AO2 SNE11 P0000 T10721106
KJST 141501Z AUTO 30012G21KT 3SM -SN BKN013 OVC034 M07/M10 A2976 RMK AO2 P0000 T10721100
KJST 141454Z AUTO 29013G21KT 2 1/2SM -SN BR BKN013 OVC034 M07/M09 A2976 RMK AO2 VIS 1V4 SNB1359 SLP111 P0001 60001 T10721094 51038
KJST 141452Z AUTO 30014KT 2SM -SN BR BKN013 OVC036 M07/M09 A2976 RMK AO2 VIS 1V4 SNB1359 P0001
KJST 141416Z AUTO 30015G23KT 3SM -SN BR BKN013 OVC037 M07/M09 A2972 RMK AO2 SNB1359 P0000 T10721094
KJST 141407Z AUTO 30017KT 2SM -SN BR SCT011 BKN017 OVC050 M07/M09 A2971 RMK AO2 SNB1359 P0000 T10721094
KJST 141400Z AUTO 30018G24KT 3SM -SN BR SCT011 BKN040 OVC050 M07/M09 A2971 RMK AO2 SNB1359 P0000 T10721094
KJST 141354Z AUTO 29015G24KT 1 1/4SM BR FEW011 FEW017 OVC050 M07/M09 A2971 RMK AO2 PK WND 30029/1304 VIS 1/4V5 SNE24 PRESRR SLP094 P0000 T10721089
KJST 141332Z AUTO 29016KT 9SM SCT013 SCT040 OVC050 M07/M09 A2968 RMK AO2 PK WND 30029/1304 SNE24 PRESRR P0000 T10721089
KJST 141317Z AUTO 30014KT 3SM -SN BR BKN012 BKN016 OVC040 M07/M09 A2966 RMK AO2 PK WND 30029/1304 P0000 T10721089
KJST 141254Z AUTO 31023G28KT 1 1/4SM -SN BR BKN011 OVC018 M07/M08 A2964 RMK AO2 PK WND 30031/1204 SLP070 P0000 T10671083
KJST 141248Z AUTO 30019G29KT 1 3/4SM -SN BR BKN011 OVC015 M07/M08 A2963 RMK AO2 PK WND 30031/1204 CIG 007V012 P0000
KJST 141231Z AUTO 30022G28KT 2 1/2SM -SN BR BKN009 OVC015 M06/M08 A2962 RMK AO2 PK WND 30031/1204 CIG 006V012 PRESRR P0000 T10611078
KJST 141154Z AUTO 31023G29KT 1 3/4SM -SN BR OVC009 M06/M07 A2956 RMK AO2 PK WND 32029/1152 VIS 1 1/4V3 CIG 007V012 PRESRR SLP041 P0000 60006 70016 T10561072 11017 21056 53059
KJST 141134Z AUTO 30019KT 2 1/2SM -SN BR BKN009 OVC016 M06/M07 A2953 RMK AO2 PK WND 31028/1120 CIG 005V012 P0000 T10561067
KJST 141111Z AUTO 31019KT 1 1/4SM -SN BR FEW003 OVC007 M04/M06 A2950 RMK AO2 PK WND 31027/1055 PRESRR P0000 T10441056
KJST 141103Z AUTO 30018G27KT 3/4SM -SN BR BKN007 OVC016 M04/M06 A2949 RMK AO2 PK WND 31027/1055 PRESRR P0000 T10441056
KJST 141054Z AUTO 31020G28KT 1/4SM SN FZFG OVC005 M04/M04 A2947 RMK AO2 PK WND 27034/1012 PRESRR SLP010 P0002 T10391044
KJST 141045Z AUTO 28015G25KT 3/4SM -SN BR BKN005 OVC010 M03/M03 A2945 RMK AO2 PK WND 27034/1012 CIG 003V007 PRESRR P0001 T10281033
KJST 141021Z AUTO 27021G34KT 1SM -SN BR BKN005 OVC009 M03/M04 A2941 RMK AO2 PK WND 27034/1012 CIG 003V007 P0001 T10281039
KJST 140954Z AUTO 28019G28KT 1/2SM SN FZFG OVC005 M03/M03 A2939 RMK AO2 PK WND 27032/0943 SLP982 P0001 T10281033